Time;durP1;ratioP1;P1;durP2;ratioP2;P2;SDS_P1;SDS_P2;PMS_P1;PMS_P2;Temp;Humidity;BMP_temperature;BMP_pressure;BME280_temperature;BME280_humidity;BME280_pressure;Samples;Min_cycle;Max_cycle;Signal;HPM_P1;HPM_P2
2022/07/09 00:00:13;;;;;;;;;;;;;;;17.88;54.68;101048.52;1680038;84;25473;-60
2022/07/09 00:02:41;;;;;;;;;;;;;;;17.83;54.61;101043.61;1670046;83;25874;-60
2022/07/09 00:05:08;;;;;;;;;;;;;;;17.76;55.00;101046.19;1678217;83;25895;-61
2022/07/09 00:07:36;;;;;;;;;;;;;;;17.71;55.40;101043.66;1705569;83;25752;-60
2022/07/09 00:10:04;;;;;;;;;;;;;;;17.67;55.55;101039.91;1703413;83;26156;-60
2022/07/09 00:12:30;;;;;;;;;;;;;;;17.66;55.71;101042.82;1695139;83;26105;-61
2022/07/09 00:14:56;;;;;;;;;;;;;;;17.61;56.13;101043.87;1698597;83;28335;-60
2022/07/09 00:17:23;;;;;;;;;;;;;;;17.58;56.36;101036.89;1706512;83;26927;-60
2022/07/09 00:19:49;;;;;;;;;;;;;;;17.56;56.33;101034.88;1699088;83;25815;-60
2022/07/09 00:22:16;;;;;;;;;;;;;;;17.56;56.58;101034.02;1701074;83;26493;-60
2022/07/09 00:24:43;;;;;;;;;;;;;;;17.55;56.72;101033.18;1713300;83;25888;-60
2022/07/09 00:27:09;;;;;;;;;;;;;;;17.57;56.38;101028.91;1719721;82;27481;-61
2022/07/09 00:29:36;;;;;;;;;;;;;;;17.57;56.50;101023.48;1701350;83;25781;-60
2022/07/09 00:32:05;;;;;;;;;;;;;;;17.57;56.43;101024.31;1705107;83;25902;-60
2022/07/09 00:34:32;;;;;;;;;;;;;;;17.53;56.90;101019.73;1705462;83;26087;-60
2022/07/09 00:36:58;;;;;;;;;;;;;;;17.52;56.61;101023.51;1696354;83;25715;-61
2022/07/09 00:39:25;;;;;;;;;;;;;;;17.51;56.62;101025.89;1703941;83;27529;-61
2022/07/09 00:42:04;;;;;;;;;;;;;;;17.51;56.98;101024.53;1707242;83;25812;-60
2022/07/09 00:44:31;;;;;;;;;;;;;;;17.49;56.61;101028.42;1707421;83;25733;-59
2022/07/09 00:46:58;;;;;;;;;;;;;;;17.46;56.39;101026.91;1695072;83;26156;-60
2022/07/09 00:49:27;;;;;;;;;;;;;;;17.46;57.29;101022.00;1696828;83;25925;-60
2022/07/09 00:51:54;;;;;;;;;;;;;;;17.48;56.94;101031.67;1684895;83;27514;-60
2022/07/09 00:54:21;;;;;;;;;;;;;;;17.51;56.85;101031.33;1698000;83;25884;-60
2022/07/09 00:56:48;;;;;;;;;;;;;;;17.55;56.54;101029.59;1693905;83;25901;-60
2022/07/09 00:59:16;;;;;;;;;;;;;;;17.53;56.86;101030.62;1708416;82;26080;-59
2022/07/09 01:01:42;;;;;;;;;;;;;;;17.55;57.14;101035.03;1703988;82;25815;-60
2022/07/09 01:04:09;;;;;;;;;;;;;;;17.53;56.94;101036.58;1720270;82;26917;-60
2022/07/09 01:06:36;;;;;;;;;;;;;;;17.50;56.93;101040.52;1677100;83;25814;-60
2022/07/09 01:09:03;;;;;;;;;;;;;;;17.47;56.83;101033.22;1654148;84;25746;-59
2022/07/09 01:11:30;;;;;;;;;;;;;;;17.46;56.78;101035.06;1660928;84;26115;-60
2022/07/09 01:13:58;;;;;;;;;;;;;;;17.47;56.79;101035.94;1662989;84;27370;-59
2022/07/09 01:16:30;;;;;;;;;;;;;;;17.48;56.43;101040.35;1658373;84;27477;-60
2022/07/09 01:18:57;;;;;;;;;;;;;;;17.48;56.71;101040.35;1658815;84;26087;-61
2022/07/09 01:21:23;;;;;;;;;;;;;;;17.47;56.71;101041.38;1680897;83;25871;-60
2022/07/09 01:23:50;;;;;;;;;;;;;;;17.44;56.57;101049.88;1672254;85;26099;-60
2022/07/09 01:26:19;;;;;;;;;;;;;;;17.42;56.80;101048.70;1664625;84;25439;-60
2022/07/09 01:28:47;;;;;;;;;;;;;;;17.42;56.98;101052.78;1659090;85;28321;-60
2022/07/09 01:31:14;;;;;;;;;;;;;;;17.36;57.29;101046.66;1659047;84;25542;-60
2022/07/09 01:33:41;;;;;;;;;;;;;;;17.26;57.49;101051.47;1656684;84;25891;-60
2022/07/09 01:36:08;;;;;;;;;;;;;;;17.18;57.63;101057.23;1667509;84;26098;-60
2022/07/09 01:38:35;;;;;;;;;;;;;;;17.14;58.61;101055.03;1667952;84;26237;-60
2022/07/09 01:41:01;;;;;;;;;;;;;;;17.06;58.91;101049.12;1647836;85;27506;-60
2022/07/09 01:43:28;;;;;;;;;;;;;;;16.97;60.05;101050.98;1657937;84;27248;-60
2022/07/09 01:45:55;;;;;;;;;;;;;;;16.95;59.12;101055.73;1658890;85;25805;-60
2022/07/09 01:48:21;;;;;;;;;;;;;;;17.00;58.65;101055.22;1672500;84;26115;-60
2022/07/09 01:50:48;;;;;;;;;;;;;;;17.11;59.35;101062.19;1669613;84;25793;-61
2022/07/09 01:53:15;;;;;;;;;;;;;;;17.15;58.54;101061.67;1654495;83;27519;-60
2022/07/09 01:55:42;;;;;;;;;;;;;;;17.21;58.29;101060.97;1654658;84;26190;-61
2022/07/09 01:58:08;;;;;;;;;;;;;;;17.22;58.68;101064.53;1657170;85;25509;-60
2022/07/09 02:00:35;;;;;;;;;;;;;;;17.20;58.76;101063.87;1664050;84;26110;-60
2022/07/09 02:03:02;;;;;;;;;;;;;;;17.12;59.33;101060.66;1671784;84;25698;-60
2022/07/09 02:05:29;;;;;;;;;;;;;;;17.04;59.58;101066.10;1674889;83;27497;-60
2022/07/09 02:07:56;;;;;;;;;;;;;;;16.93;61.05;101065.05;1683326;82;25525;-60
2022/07/09 02:10:23;;;;;;;;;;;;;;;16.84;61.26;101062.86;1698155;82;25932;-60
2022/07/09 02:12:50;;;;;;;;;;;;;;;16.75;61.47;101062.00;1697619;83;26727;-60
2022/07/09 02:15:16;;;;;;;;;;;;;;;16.67;62.17;101071.02;1705895;83;25792;-60
2022/07/09 02:17:43;;;;;;;;;;;;;;;16.61;62.06;101066.24;1696263;83;27473;-60
2022/07/09 02:20:11;;;;;;;;;;;;;;;16.54;62.61;101061.16;1695022;82;27236;-60
2022/07/09 02:22:38;;;;;;;;;;;;;;;16.48;62.65;101061.83;1701199;82;25887;-60
2022/07/09 02:25:07;;;;;;;;;;;;;;;16.42;62.43;101055.20;1690577;83;26112;-61
2022/07/09 02:27:34;;;;;;;;;;;;;;;16.40;63.38;101061.30;1706520;83;25922;-60
2022/07/09 02:30:00;;;;;;;;;;;;;;;16.36;63.81;101051.81;1687803;83;27487;-59
2022/07/09 02:32:27;;;;;;;;;;;;;;;16.36;63.86;101056.72;1705914;82;25772;-59
2022/07/09 02:34:53;;;;;;;;;;;;;;;16.35;63.82;101060.97;1697217;83;26287;-59
2022/07/09 02:37:19;;;;;;;;;;;;;;;16.38;62.94;101065.55;1696569;83;26740;-61
2022/07/09 02:39:47;;;;;;;;;;;;;;;16.39;63.51;101060.95;1674298;83;25802;-59
2022/07/09 02:42:13;;;;;;;;;;;;;;;16.38;63.95;101062.84;1679606;84;28304;-59
2022/07/09 02:44:43;;;;;;;;;;;;;;;16.38;64.06;101064.20;1681239;84;25734;-60
2022/07/09 02:47:08;;;;;;;;;;;;;;;16.40;64.19;101067.59;1689766;83;25773;-59
2022/07/09 02:49:35;;;;;;;;;;;;;;;16.45;63.62;101064.34;1693246;82;26090;-58
2022/07/09 02:52:02;;;;;;;;;;;;;;;16.45;63.81;101069.78;1692073;83;25499;-60
2022/07/09 02:54:29;;;;;;;;;;;;;;;16.45;64.08;101065.70;1702672;83;27546;-60
2022/07/09 02:56:55;;;;;;;;;;;;;;;16.47;63.59;101066.92;1698115;83;25810;-59
2022/07/09 02:59:22;;;;;;;;;;;;;;;16.49;63.68;101064.37;1682857;84;25879;-59
2022/07/09 03:01:48;;;;;;;;;;;;;;;16.48;64.15;101069.45;1674611;84;25739;-59
2022/07/09 03:04:15;;;;;;;;;;;;;;;16.45;64.47;101071.14;1664754;84;25849;-59
2022/07/09 03:06:42;;;;;;;;;;;;;;;16.50;63.56;101071.50;1670804;84;27485;-59
2022/07/09 03:09:09;;;;;;;;;;;;;;;16.57;63.77;101064.90;1671768;84;26366;-59
2022/07/09 03:11:36;;;;;;;;;;;;;;;16.59;63.94;101070.98;1661755;84;25872;-60
2022/07/09 03:14:02;;;;;;;;;;;;;;;16.61;63.67;101065.41;1677694;84;26090;-59
2022/07/09 03:16:29;;;;;;;;;;;;;;;16.59;63.61;101068.27;1667798;84;25973;-59
2022/07/09 03:18:55;;;;;;;;;;;;;;;16.62;63.72;101068.47;1671351;84;28310;-59
2022/07/09 03:21:21;;;;;;;;;;;;;;;16.63;63.87;101065.57;1668485;84;25396;-59
2022/07/09 03:23:48;;;;;;;;;;;;;;;16.66;63.42;101065.73;1669119;83;25759;-59
2022/07/09 03:26:15;;;;;;;;;;;;;;;16.69;63.89;101061.33;1682395;84;26039;-59
2022/07/09 03:28:42;;;;;;;;;;;;;;;16.67;64.04;101060.16;1670991;84;25765;-59
2022/07/09 03:31:08;;;;;;;;;;;;;;;16.66;64.16;101058.95;1667639;84;29572;-60
2022/07/09 03:33:35;;;;;;;;;;;;;;;16.65;64.39;101063.55;1661175;84;25500;-59
2022/07/09 03:36:02;;;;;;;;;;;;;;;16.64;64.10;101055.05;1668145;85;25698;-59
2022/07/09 03:38:28;;;;;;;;;;;;;;;16.68;64.12;101059.63;1666906;85;26272;-59
2022/07/09 03:40:55;;;;;;;;;;;;;;;16.71;63.97;101060.66;1664729;83;25920;-60
2022/07/09 03:43:22;;;;;;;;;;;;;;;16.74;64.08;101053.51;1673783;84;27472;-59
2022/07/09 03:45:48;;;;;;;;;;;;;;;16.80;63.75;101059.64;1677161;84;25699;-59
2022/07/09 03:48:15;;;;;;;;;;;;;;;16.85;63.87;101056.41;1674008;84;26412;-59
2022/07/09 03:50:41;;;;;;;;;;;;;;;16.90;64.02;101050.78;1671870;84;26163;-59
2022/07/09 03:53:08;;;;;;;;;;;;;;;16.97;63.75;101060.50;1682451;84;25902;-59
2022/07/09 03:55:35;;;;;;;;;;;;;;;17.01;63.76;101055.06;1672912;84;27494;-59
2022/07/09 03:58:01;;;;;;;;;;;;;;;17.04;63.97;101056.59;1660586;84;25858;-59
2022/07/09 04:00:28;;;;;;;;;;;;;;;17.11;63.49;101056.23;1668381;84;25778;-59
2022/07/09 04:02:54;;;;;;;;;;;;;;;17.16;63.37;101052.50;1673558;84;26121;-59
2022/07/09 04:05:21;;;;;;;;;;;;;;;17.22;63.28;101050.94;1670617;83;25771;-59
2022/07/09 04:07:48;;;;;;;;;;;;;;;17.29;63.01;101053.81;1703829;83;27602;-59
2022/07/09 04:10:15;;;;;;;;;;;;;;;17.35;62.88;101054.47;1700990;83;25906;-59
2022/07/09 04:12:42;;;;;;;;;;;;;;;17.40;62.71;101053.95;1711242;83;25692;-59
2022/07/09 04:15:10;;;;;;;;;;;;;;;17.48;62.60;101046.63;1707549;82;26108;-59
2022/07/09 04:17:36;;;;;;;;;;;;;;;17.56;62.46;101046.25;1704608;83;25866;-59
2022/07/09 04:20:05;;;;;;;;;;;;;;;17.64;62.01;101041.65;1706100;83;27535;-59
2022/07/09 04:22:31;;;;;;;;;;;;;;;17.73;61.50;101041.61;1662757;85;25880;-58
2022/07/09 04:24:58;;;;;;;;;;;;;;;17.77;61.28;101041.08;1643761;86;25800;-59
2022/07/09 04:27:24;;;;;;;;;;;;;;;17.83;61.13;101039.00;1668707;84;26095;-59
2022/07/09 04:29:51;;;;;;;;;;;;;;;17.88;60.94;101038.47;1648365;86;25770;-59
2022/07/09 04:32:17;;;;;;;;;;;;;;;17.94;60.79;101047.27;1670501;84;27468;-59
2022/07/09 04:34:44;;;;;;;;;;;;;;;17.98;60.52;101056.82;1642391;86;25805;-60
2022/07/09 04:37:10;;;;;;;;;;;;;;;18.04;60.28;101053.91;1656953;85;25855;-60
2022/07/09 04:39:37;;;;;;;;;;;;;;;18.12;60.18;101057.07;1656519;85;26155;-60
2022/07/09 04:42:05;;;;;;;;;;;;;;;18.18;59.92;101059.10;1659764;85;25796;-59
2022/07/09 04:44:32;;;;;;;;;;;;;;;18.20;59.75;101058.38;1658509;85;28391;-59
2022/07/09 04:46:58;;;;;;;;;;;;;;;18.24;59.56;101048.01;1659069;85;25816;-59
2022/07/09 04:49:26;;;;;;;;;;;;;;;18.31;59.42;101050.34;1654421;85;25494;-60
2022/07/09 04:51:53;;;;;;;;;;;;;;;18.40;59.25;101048.39;1640327;85;26120;-59
2022/07/09 04:54:20;;;;;;;;;;;;;;;18.46;59.07;101054.49;1642038;85;25836;-59
2022/07/09 04:56:46;;;;;;;;;;;;;;;18.52;58.79;101052.89;1651037;86;28295;-60
2022/07/09 04:59:13;;;;;;;;;;;;;;;18.58;58.65;101047.57;1631567;85;25849;-60
2022/07/09 05:01:39;;;;;;;;;;;;;;;18.69;58.43;101053.09;1626790;87;25778;-59
2022/07/09 05:04:06;;;;;;;;;;;;;;;18.81;57.93;101040.41;1628903;87;26118;-59
2022/07/09 05:06:32;;;;;;;;;;;;;;;18.92;57.62;101049.01;1616353;87;25823;-59
2022/07/09 05:08:59;;;;;;;;;;;;;;;18.98;56.94;101039.25;1639056;86;27511;-59
2022/07/09 05:11:25;;;;;;;;;;;;;;;19.04;56.93;101042.61;1635388;85;25848;-59
2022/07/09 05:13:52;;;;;;;;;;;;;;;19.16;56.44;101038.91;1639003;85;25879;-57
2022/07/09 05:16:19;;;;;;;;;;;;;;;19.28;56.47;101044.75;1628380;86;26111;-59
2022/07/09 05:18:46;;;;;;;;;;;;;;;19.36;56.11;101036.47;1630601;86;25692;-59
2022/07/09 05:21:12;;;;;;;;;;;;;;;19.45;55.85;101035.88;1641696;86;27522;-59
2022/07/09 05:23:39;;;;;;;;;;;;;;;19.53;55.56;101028.95;1634681;86;26013;-66
2022/07/09 05:26:07;;;;;;;;;;;;;;;19.60;54.96;101025.45;1643908;87;25589;-59
2022/07/09 05:28:33;;;;;;;;;;;;;;;19.63;54.84;101030.02;1634398;87;26121;-59
2022/07/09 05:31:00;;;;;;;;;;;;;;;19.66;54.91;101026.05;1625263;86;25843;-59
2022/07/09 05:33:26;;;;;;;;;;;;;;;19.71;54.83;101026.34;1627353;86;27484;-59
2022/07/09 05:35:53;;;;;;;;;;;;;;;19.73;54.88;101031.60;1633190;86;25811;-58
2022/07/09 05:38:21;;;;;;;;;;;;;;;19.82;54.49;101021.73;1636776;87;25723;-59
2022/07/09 05:40:47;;;;;;;;;;;;;;;19.89;54.19;101023.75;1626773;87;26097;-59
2022/07/09 05:43:14;;;;;;;;;;;;;;;19.95;54.23;101017.52;1618210;86;25755;-59
2022/07/09 05:45:40;;;;;;;;;;;;;;;20.01;54.05;101019.46;1635849;85;27496;-59
2022/07/09 05:48:07;;;;;;;;;;;;;;;20.09;53.86;101020.70;1656722;85;25812;-59
2022/07/09 05:50:34;;;;;;;;;;;;;;;20.20;53.31;101013.91;1661902;85;25874;-60
2022/07/09 05:53:00;;;;;;;;;;;;;;;20.27;53.29;101016.19;1656466;85;26107;-59
2022/07/09 05:55:27;;;;;;;;;;;;;;;20.38;52.90;101019.45;1657203;85;25707;-60
2022/07/09 05:57:54;;;;;;;;;;;;;;;20.49;52.72;101021.13;1647749;85;27482;-60
2022/07/09 06:00:20;;;;;;;;;;;;;;;20.59;52.74;101022.15;1627015;86;25951;-60
2022/07/09 06:02:47;;;;;;;;;;;;;;;20.71;52.84;101026.55;1629674;86;25722;-60
2022/07/09 06:05:13;;;;;;;;;;;;;;;20.80;52.68;101032.77;1635820;86;26097;-59
2022/07/09 06:07:44;;;;;;;;;;;;;;;20.91;51.67;101027.27;1636192;86;25636;-60
2022/07/09 06:10:09;;;;;;;;;;;;;;;20.95;51.93;101036.25;1617424;87;27500;-60
2022/07/09 06:12:36;;;;;;;;;;;;;;;21.04;51.17;101028.76;1631440;86;25720;-60
2022/07/09 06:15:04;;;;;;;;;;;;;;;21.14;51.18;101032.50;1627939;85;25842;-60
2022/07/09 06:17:31;;;;;;;;;;;;;;;21.21;51.08;101027.08;1623666;87;26149;-60
2022/07/09 06:19:58;;;;;;;;;;;;;;;21.27;51.01;101026.27;1633055;85;25707;-60
2022/07/09 06:22:24;;;;;;;;;;;;;;;21.37;50.50;101025.92;1630698;86;27496;-60
2022/07/09 06:24:51;;;;;;;;;;;;;;;21.43;50.53;101022.36;1640847;85;25830;-60
2022/07/09 06:27:18;;;;;;;;;;;;;;;21.49;50.62;101026.19;1628422;85;25905;-59
2022/07/09 06:29:44;;;;;;;;;;;;;;;21.55;50.64;101027.59;1628803;86;26164;-60
2022/07/09 06:32:11;;;;;;;;;;;;;;;21.59;50.34;101018.48;1630119;86;25791;-60
2022/07/09 06:34:38;;;;;;;;;;;;;;;21.69;50.33;101018.09;1635817;86;27444;-60
2022/07/09 06:37:05;;;;;;;;;;;;;;;21.79;50.09;101016.33;1623728;85;25751;-59
2022/07/09 06:39:55;;;;;;;;;;;;;;;21.92;50.29;101021.04;1636473;87;25743;-60
2022/07/09 06:42:16;;;;;;;;;;;;;;;22.02;49.90;101013.25;1636832;86;28213;-59
2022/07/09 06:44:45;;;;;;;;;;;;;;;22.13;49.78;101008.55;1614702;87;25964;-59
2022/07/09 06:47:12;;;;;;;;;;;;;;;22.26;49.03;100996.77;1651478;85;27158;-59
2022/07/09 06:49:39;;;;;;;;;;;;;;;22.30;49.26;101003.53;1653774;85;25779;-59
2022/07/09 06:52:07;;;;;;;;;;;;;;;22.34;49.14;101005.33;1655840;85;25918;-59
2022/07/09 06:54:35;;;;;;;;;;;;;;;22.40;48.92;101011.36;1659139;85;26166;-60
2022/07/09 06:57:03;;;;;;;;;;;;;;;22.49;47.73;101007.91;1663929;85;25453;-60
2022/07/09 06:59:29;;;;;;;;;;;;;;;22.43;47.65;101010.09;1642004;86;28266;-60
2022/07/09 07:01:56;;;;;;;;;;;;;;;22.43;47.76;101005.98;1637788;86;25913;-60
2022/07/09 07:04:24;;;;;;;;;;;;;;;22.46;48.00;101012.42;1659739;84;25891;-60
2022/07/09 07:06:51;;;;;;;;;;;;;;;22.55;47.58;101004.86;1659094;85;26132;-60
2022/07/09 07:09:18;;;;;;;;;;;;;;;22.64;46.92;101007.67;1663755;85;25874;-59
2022/07/09 07:11:45;;;;;;;;;;;;;;;22.71;47.36;101000.31;1660863;85;27485;-59
2022/07/09 07:14:12;;;;;;;;;;;;;;;22.84;46.57;101006.32;1659461;85;25532;-59
2022/07/09 07:16:39;;;;;;;;;;;;;;;22.93;46.63;101010.53;1631129;86;25742;-59
2022/07/09 07:19:06;;;;;;;;;;;;;;;22.98;46.46;101005.78;1625133;85;26093;-60
2022/07/09 07:21:32;;;;;;;;;;;;;;;23.01;46.60;101004.50;1618320;86;25683;-61
2022/07/09 07:23:59;;;;;;;;;;;;;;;23.15;46.40;101006.16;1621838;85;27477;-60
2022/07/09 07:26:27;;;;;;;;;;;;;;;23.26;45.65;101010.20;1635140;86;25854;-59
2022/07/09 07:28:54;;;;;;;;;;;;;;;23.33;45.67;101009.64;1643150;86;25841;-60
2022/07/09 07:31:22;;;;;;;;;;;;;;;23.40;45.87;100999.48;1636734;86;26114;-59
2022/07/09 07:33:49;;;;;;;;;;;;;;;23.51;45.84;101006.19;1627963;86;26539;-60
2022/07/09 07:36:16;;;;;;;;;;;;;;;23.67;45.55;100995.77;1632149;86;27421;-60
2022/07/09 07:38:44;;;;;;;;;;;;;;;23.78;45.26;101002.50;1634164;86;26048;-60
2022/07/09 07:41:12;;;;;;;;;;;;;;;23.88;45.03;101005.08;1627836;86;25751;-60
2022/07/09 07:43:39;;;;;;;;;;;;;;;24.01;44.18;101013.81;1641504;86;26143;-59
2022/07/09 07:46:06;;;;;;;;;;;;;;;24.11;44.08;101011.13;1637633;85;25661;-60
2022/07/09 07:48:32;;;;;;;;;;;;;;;24.22;44.35;101007.67;1629184;86;27608;-60
2022/07/09 07:50:59;;;;;;;;;;;;;;;24.36;44.68;101008.42;1634356;86;25928;-59
2022/07/09 07:53:26;;;;;;;;;;;;;;;24.51;43.99;101006.73;1628631;86;25870;-60
2022/07/09 07:55:52;;;;;;;;;;;;;;;24.63;42.63;100999.42;1641267;86;26178;-60
2022/07/09 07:58:19;;;;;;;;;;;;;;;24.67;42.44;100996.58;1633947;86;25763;-60
2022/07/09 08:00:45;;;;;;;;;;;;;;;24.77;42.46;100993.86;1631322;86;28292;-60
2022/07/09 08:03:12;;;;;;;;;;;;;;;24.86;42.38;100993.88;1630115;86;25918;-60
2022/07/09 08:05:38;;;;;;;;;;;;;;;24.97;42.61;100995.86;1634185;85;25734;-59
2022/07/09 08:08:05;;;;;;;;;;;;;;;25.06;41.40;100988.16;1630958;86;26105;-60
2022/07/09 08:10:32;;;;;;;;;;;;;;;25.11;41.75;100988.31;1629042;86;26154;-60
2022/07/09 08:12:58;;;;;;;;;;;;;;;25.13;41.47;100988.93;1625067;86;27606;-60
2022/07/09 08:15:25;;;;;;;;;;;;;;;25.16;41.41;100986.25;1634634;86;25809;-60
2022/07/09 08:17:53;;;;;;;;;;;;;;;25.24;41.09;100976.86;1627715;86;25793;-61
2022/07/09 08:20:20;;;;;;;;;;;;;;;25.19;41.00;100978.92;1636521;86;26121;-59
2022/07/09 08:22:46;;;;;;;;;;;;;;;25.21;40.95;100981.44;1636540;86;25812;-59
2022/07/09 08:25:13;;;;;;;;;;;;;;;25.24;40.81;100974.10;1623659;86;29584;-60
2022/07/09 08:27:40;;;;;;;;;;;;;;;25.33;40.85;100970.52;1625234;86;25770;-60
2022/07/09 08:30:08;;;;;;;;;;;;;;;25.41;40.07;100966.94;1632592;86;25968;-60
2022/07/09 08:32:34;;;;;;;;;;;;;;;25.46;40.48;100969.00;1630412;87;27072;-61
2022/07/09 08:35:01;;;;;;;;;;;;;;;25.51;40.41;100965.00;1618776;87;25858;-61
2022/07/09 08:37:27;;;;;;;;;;;;;;;25.72;40.10;100960.94;1635947;86;27508;-60
2022/07/09 08:39:53;;;;;;;;;;;;;;;25.93;39.59;100962.34;1616487;85;25943;-60
2022/07/09 08:42:20;;;;;;;;;;;;;;;26.13;39.43;100957.62;1628167;87;25772;-60
2022/07/09 08:44:47;;;;;;;;;;;;;;;26.31;38.97;100950.65;1639201;86;26158;-60
2022/07/09 08:47:15;;;;;;;;;;;;;;;26.35;39.10;100940.84;1667266;85;25707;-60
2022/07/09 08:49:43;;;;;;;;;;;;;;;26.43;38.24;100945.14;1661645;85;28154;-60
2022/07/09 08:52:10;;;;;;;;;;;;;;;26.40;38.55;100944.27;1665551;84;25772;-60
2022/07/09 08:54:37;;;;;;;;;;;;;;;26.36;38.02;100942.48;1637894;85;25828;-60
2022/07/09 08:57:05;;;;;;;;;;;;;;;26.35;38.21;100944.12;1621877;87;26373;-60
2022/07/09 08:59:33;;;;;;;;;;;;;;;26.34;38.14;100939.67;1625324;87;26051;-60
2022/07/09 09:02:05;;;;;;;;;;;;;;;26.39;38.00;100933.75;1621563;87;27482;-60
2022/07/09 09:04:39;;;;;;;;;;;;;;;26.49;37.17;100927.63;1629599;86;25845;-60
2022/07/09 09:07:19;;;;;;;;;;;;;;;26.54;37.42;100929.16;1623098;86;25971;-60
2022/07/09 09:09:46;;;;;;;;;;;;;;;26.64;37.12;100924.41;1616184;86;26280;-60
2022/07/09 09:12:13;;;;;;;;;;;;;;;26.70;36.76;100929.50;1630179;86;26051;-60
2022/07/09 09:14:48;;;;;;;;;;;;;;;26.74;36.67;100933.47;1622743;87;27567;-60
2022/07/09 09:17:15;;;;;;;;;;;;;;;26.77;36.90;100932.18;1628184;86;26046;-60
2022/07/09 09:19:42;;;;;;;;;;;;;;;26.81;36.79;100921.80;1625423;87;25840;-60
2022/07/09 09:22:11;;;;;;;;;;;;;;;26.96;36.29;100920.45;1625968;86;26145;-59
2022/07/09 09:24:38;;;;;;;;;;;;;;;27.02;35.73;100914.80;1640603;86;25869;-60
2022/07/09 09:27:05;;;;;;;;;;;;;;;27.08;35.85;100914.90;1634587;85;29637;-60
2022/07/09 09:29:33;;;;;;;;;;;;;;;27.13;35.30;100919.17;1637245;86;25758;-60
2022/07/09 09:32:09;;;;;;;;;;;;;;;27.13;35.89;100914.47;1634220;86;25744;-61
2022/07/09 09:34:35;;;;;;;;;;;;;;;27.23;35.70;100915.25;1639429;86;26148;-60
2022/07/09 09:37:02;;;;;;;;;;;;;;;27.34;35.77;100917.11;1641321;86;25804;-61
2022/07/09 09:39:30;;;;;;;;;;;;;;;27.40;34.67;100915.30;1625411;86;27539;-60
2022/07/09 09:41:59;;;;;;;;;;;;;;;27.40;34.87;100908.39;1627762;87;26228;-60
2022/07/09 09:44:39;;;;;;;;;;;;;;;27.37;35.34;100909.42;1624987;86;25809;-59
2022/07/09 09:47:05;;;;;;;;;;;;;;;27.31;35.04;100911.23;1653947;85;26157;-60
2022/07/09 09:49:32;;;;;;;;;;;;;;;27.24;34.79;100902.27;1635792;86;26178;-60
2022/07/09 09:52:07;;;;;;;;;;;;;;;27.14;34.82;100905.11;1629265;85;27710;-59
2022/07/09 09:54:39;;;;;;;;;;;;;;;27.11;35.22;100904.23;1640591;86;25734;-60
2022/07/09 09:57:09;;;;;;;;;;;;;;;27.17;35.39;100894.97;1636123;86;25770;-60
2022/07/09 09:59:40;;;;;;;;;;;;;;;27.22;35.24;100896.14;1617356;86;27147;-61
2022/07/09 10:02:12;;;;;;;;;;;;;;;27.38;35.25;100886.25;1630681;86;25569;-60
2022/07/09 10:04:41;;;;;;;;;;;;;;;27.43;34.80;100885.84;1628514;86;28365;-61
2022/07/09 10:07:10;;;;;;;;;;;;;;;27.58;34.22;100881.68;1607481;87;25824;-60
2022/07/09 10:09:37;;;;;;;;;;;;;;;28.09;34.05;100886.79;1601665;87;25468;-61
2022/07/09 10:12:05;;;;;;;;;;;;;;;28.37;33.45;100886.94;1595832;88;26114;-61
2022/07/09 10:14:34;;;;;;;;;;;;;;;28.37;32.84;100877.25;1603032;87;26688;-61
2022/07/09 10:17:13;;;;;;;;;;;;;;;28.56;33.29;100881.42;1613995;87;27664;-61
2022/07/09 10:19:52;;;;;;;;;;;;;;;28.74;32.98;100887.79;1604904;88;26263;-61
2022/07/09 10:22:19;;;;;;;;;;;;;;;28.83;33.14;100882.63;1615419;87;25768;-61
2022/07/09 10:24:46;;;;;;;;;;;;;;;28.80;32.81;100881.78;1623888;88;26261;-61
2022/07/09 10:27:13;;;;;;;;;;;;;;;28.70;32.90;100884.70;1610873;87;25812;-60
2022/07/09 10:29:56;;;;;;;;;;;;;;;28.54;32.84;100880.01;1616397;87;27566;-61
2022/07/09 10:32:29;;;;;;;;;;;;;;;28.39;33.29;100877.84;1611043;87;25870;-61
2022/07/09 10:35:06;;;;;;;;;;;;;;;28.41;33.34;100879.26;1607972;87;25860;-60
2022/07/09 10:37:43;;;;;;;;;;;;;;;28.31;33.31;100879.09;1615058;87;26946;-61
2022/07/09 10:40:12;;;;;;;;;;;;;;;28.32;32.94;100876.63;1614844;87;25724;-61
2022/07/09 10:42:41;;;;;;;;;;;;;;;28.27;32.80;100874.62;1614210;87;27498;-61
2022/07/09 10:45:25;;;;;;;;;;;;;;;28.32;32.50;100866.95;1616168;87;26618;-60
2022/07/09 10:47:57;;;;;;;;;;;;;;;28.34;33.22;100871.69;1608619;87;25728;-60
2022/07/09 10:50:25;;;;;;;;;;;;;;;29.01;32.49;100866.27;1608994;87;26085;-61
2022/07/09 10:52:52;;;;;;;;;;;;;;;29.16;31.55;100860.91;1621010;87;25882;-61
2022/07/09 10:55:21;;;;;;;;;;;;;;;29.11;31.65;100860.86;1617179;87;27493;-61
2022/07/09 10:57:48;;;;;;;;;;;;;;;28.95;32.57;100857.05;1616846;87;26693;-61
2022/07/09 11:00:16;;;;;;;;;;;;;;;28.81;32.68;100854.39;1619510;86;25890;-60
2022/07/09 11:02:54;;;;;;;;;;;;;;;28.72;32.78;100855.37;1621738;87;26140;-61
2022/07/09 11:05:22;;;;;;;;;;;;;;;28.57;32.52;100856.81;1631142;86;25852;-60
2022/07/09 11:08:01;;;;;;;;;;;;;;;28.35;32.71;100859.53;1619517;87;27458;-60
2022/07/09 11:10:29;;;;;;;;;;;;;;;28.24;33.00;100861.84;1613029;87;25942;-60
2022/07/09 11:12:58;;;;;;;;;;;;;;;28.10;33.37;100863.58;1616876;86;25845;-60
2022/07/09 11:15:28;;;;;;;;;;;;;;;28.03;33.62;100870.33;1618344;87;26243;-60
2022/07/09 11:18:01;;;;;;;;;;;;;;;28.05;34.00;100861.24;1613947;87;25984;-60
2022/07/09 11:20:29;;;;;;;;;;;;;;;28.24;33.69;100861.84;1615402;86;27504;-61
2022/07/09 11:22:56;;;;;;;;;;;;;;;28.37;33.35;100861.51;1607838;86;25850;-61
2022/07/09 11:25:28;;;;;;;;;;;;;;;28.57;33.22;100860.96;1613076;86;25835;-61
2022/07/09 11:27:59;;;;;;;;;;;;;;;29.17;32.06;100858.99;1621529;86;26108;-61
2022/07/09 11:30:27;;;;;;;;;;;;;;;29.48;31.77;100855.19;1615041;86;25762;-61
2022/07/09 11:32:54;;;;;;;;;;;;;;;29.76;31.40;100860.17;1621174;86;28341;-61
2022/07/09 11:35:27;;;;;;;;;;;;;;;29.82;31.14;100853.03;1615261;87;44198;-61
2022/07/09 11:37:54;;;;;;;;;;;;;;;29.86;30.71;100855.26;1612001;87;25775;-60
2022/07/09 11:40:21;;;;;;;;;;;;;;;29.98;30.00;100841.56;1614344;87;27308;-59
2022/07/09 11:42:49;;;;;;;;;;;;;;;30.28;30.10;100844.25;1626525;87;25571;-60
2022/07/09 11:45:27;;;;;;;;;;;;;;;31.41;28.77;100843.69;1611121;87;27519;-60
2022/07/09 11:48:08;;;;;;;;;;;;;;;32.52;28.07;100841.77;1651728;85;25940;-60
2022/07/09 11:50:38;;;;;;;;;;;;;;;33.79;25.61;100843.92;1656599;85;25756;-61
2022/07/09 11:53:05;;;;;;;;;;;;;;;34.59;24.54;100842.63;1657835;85;26884;-61
2022/07/09 11:55:34;;;;;;;;;;;;;;;35.30;24.16;100843.98;1705427;82;25483;-61
2022/07/09 11:58:08;;;;;;;;;;;;;;;35.95;22.80;100823.67;1706221;82;27540;-59
2022/07/09 12:00:37;;;;;;;;;;;;;;;36.43;22.87;100827.31;1711703;81;25734;-60
2022/07/09 12:03:04;;;;;;;;;;;;;;;37.02;21.02;100828.91;1702663;81;25998;-61
2022/07/09 12:05:33;;;;;;;;;;;;;;;36.60;21.16;100825.30;1684391;82;26124;-61
2022/07/09 12:08:04;;;;;;;;;;;;;;;36.75;21.12;100820.77;1666818;83;25832;-58
2022/07/09 12:10:34;;;;;;;;;;;;;;;37.27;20.73;100811.23;1669186;83;27530;-60
2022/07/09 12:13:01;;;;;;;;;;;;;;;37.84;19.81;100801.45;1666569;83;26448;-62
2022/07/09 12:15:28;;;;;;;;;;;;;;;38.38;19.54;100804.83;1678426;83;25841;-61
2022/07/09 12:17:57;;;;;;;;;;;;;;;38.30;19.30;100797.97;1668616;84;26069;-62
2022/07/09 12:20:25;;;;;;;;;;;;;;;38.24;19.26;100803.50;1687128;84;25796;-61
2022/07/09 12:22:52;;;;;;;;;;;;;;;37.57;19.55;100808.87;1670756;84;28465;-61
2022/07/09 12:25:19;;;;;;;;;;;;;;;37.59;19.45;100805.17;1673280;84;25858;-61
2022/07/09 12:27:47;;;;;;;;;;;;;;;37.86;19.63;100792.17;1660958;84;25675;-62
2022/07/09 12:30:14;;;;;;;;;;;;;;;38.45;18.64;100798.15;1664853;83;26087;-62
2022/07/09 12:32:41;;;;;;;;;;;;;;;38.47;18.93;100800.06;1671568;83;25837;-62
2022/07/09 12:35:09;;;;;;;;;;;;;;;38.78;18.74;100791.55;1679655;84;27502;-62
2022/07/09 12:37:37;;;;;;;;;;;;;;;39.16;18.70;100792.92;1669659;84;25720;-62